Detroit, Maine
Current Conditions -  °F | °C
As of 4:53 AM on Saturday 25 Oct 2014 (Local Time) from KBGR Reporting Station
Overcast Overcast  
Wind Chill: 40°   Ceiling: 2500
Heat Index: 45°   Visibility: 10mi
Dew Point: 40°   Wind: 10mph
Humidity: 82%   Direction: 340°NNW
Pressure: 29.65"   Gusts: NA
Location:  44.79°N, 69.3°W
Report Text: KBGR 250853Z 34009KT 10SM BKN025 OVC031 07/04 A2965 RMK AO2 SLP043 60000 T00720044 50001
Loading
Personal Weather Stations






























Interactive Weather Map
Tropical Storm Tracking
New forecast layout! Learn more

10-Day Weather Forecast

Advertisements
Track Severe Weather on mobile